Time;durP1;ratioP1;P1;durP2;ratioP2;P2;SDS_P1;SDS_P2;PMS_P1;PMS_P2;Temp;Humidity;BMP_temperature;BMP_pressure;BME280_temperature;BME280_humidity;BME280_pressure;Samples;Min_cycle;Max_cycle;Signal;HPM_P1;HPM_P2
2023/06/26 00:02:24;;;;;;;13.23;7.63;;;;;;;22.88;100.00;101165.19;5014642;28;20057;-78
2023/06/26 00:04:53;;;;;;;15.55;6.90;;;;;;;22.90;100.00;101162.97;5019648;28;20037;-78
2023/06/26 00:07:19;;;;;;;18.73;7.00;;;;;;;22.88;100.00;101164.31;5021571;28;20085;-78
2023/06/26 00:09:44;;;;;;;16.40;6.28;;;;;;;22.79;100.00;101164.78;5020925;28;20025;-77
2023/06/26 00:12:10;;;;;;;13.82;6.10;;;;;;;22.79;100.00;101166.69;5019604;28;20531;-79
2023/06/26 00:14:35;;;;;;;17.23;6.10;;;;;;;22.73;100.00;101170.47;5007622;28;20034;-77
2023/06/26 00:17:01;;;;;;;14.63;5.50;;;;;;;22.62;100.00;101176.88;5002734;28;20034;-78
2023/06/26 00:19:26;;;;;;;12.20;4.97;;;;;;;22.48;100.00;101171.78;4983937;28;20121;-77
2023/06/26 00:21:52;;;;;;;14.45;5.00;;;;;;;22.49;100.00;101170.72;5000700;28;20038;-77
2023/06/26 00:24:17;;;;;;;14.43;5.45;;;;;;;22.54;100.00;101186.41;5015845;28;20377;-77
2023/06/26 00:26:47;;;;;;;12.82;5.65;;;;;;;22.47;100.00;101166.56;5016582;28;20132;-77
2023/06/26 00:29:13;;;;;;;11.27;5.32;;;;;;;22.38;100.00;101181.78;5016376;28;20081;-78
2023/06/26 00:31:39;;;;;;;13.48;4.88;;;;;;;22.32;100.00;101186.34;5018129;28;20026;-79
2023/06/26 00:34:05;;;;;;;10.90;4.95;;;;;;;22.21;100.00;101181.81;5016096;28;20372;-77
2023/06/26 00:36:31;;;;;;;12.63;5.35;;;;;;;22.12;100.00;101184.94;5014384;28;20018;-76
2023/06/26 00:38:56;;;;;;;15.35;5.07;;;;;;;21.99;100.00;101190.78;4997505;28;20046;-77
2023/06/26 00:41:21;;;;;;;14.43;4.72;;;;;;;21.91;100.00;101196.69;5015778;28;20028;-78
2023/06/26 00:43:47;;;;;;;17.50;5.10;;;;;;;21.83;100.00;101189.69;5017741;28;20026;-77
2023/06/26 00:46:13;;;;;;;15.00;5.00;;;;;;;21.87;100.00;101192.75;5016713;28;20108;-77
2023/06/26 00:48:40;;;;;;;15.98;5.18;;;;;;;21.97;100.00;101194.84;5015545;28;20037;-76
2023/06/26 00:51:05;;;;;;;15.90;5.00;;;;;;;21.92;100.00;101179.97;5019283;28;20674;-78
2023/06/26 00:53:32;;;;;;;18.38;5.00;;;;;;;21.90;100.00;101203.22;5000183;28;20062;-75
2023/06/26 00:55:57;;;;;;;15.02;5.20;;;;;;;21.87;100.00;101187.28;4998332;28;20052;-77
2023/06/26 00:58:24;;;;;;;18.08;5.43;;;;;;;21.77;100.00;101192.59;4999977;28;20029;-79
2023/06/26 01:00:51;;;;;;;23.23;5.43;;;;;;;21.73;100.00;101207.88;5016231;28;20097;-77
2023/06/26 01:03:16;;;;;;;19.43;5.17;;;;;;;21.77;100.00;101195.31;5014623;28;20113;-79
2023/06/26 01:05:45;;;;;;;18.13;5.18;;;;;;;21.63;100.00;101192.91;5016456;28;20440;-77
2023/06/26 01:08:11;;;;;;;17.42;5.03;;;;;;;21.66;100.00;101175.97;5014407;28;20080;-77
2023/06/26 01:10:36;;;;;;;15.40;4.85;;;;;;;21.61;100.00;101188.75;4998821;28;20040;-78
2023/06/26 01:13:02;;;;;;;14.05;4.88;;;;;;;21.65;100.00;101193.50;4998557;28;20029;-78
2023/06/26 01:15:27;;;;;;;15.38;5.07;;;;;;;21.61;100.00;101189.56;4997771;28;20081;-77
2023/06/26 01:17:53;;;;;;;18.52;5.15;;;;;;;21.60;100.00;101204.34;5012640;28;20088;-77
2023/06/26 01:20:19;;;;;;;20.48;5.60;;;;;;;21.66;100.00;101203.34;5000082;28;20026;-76
2023/06/26 01:22:59;;;;;;;13.85;5.03;;;;;;;21.53;100.00;101211.06;5018993;28;20022;-76
2023/06/26 01:25:38;;;;;;;18.77;4.90;;;;;;;21.46;100.00;101209.31;4999615;28;20030;-77
2023/06/26 01:28:05;;;;;;;14.35;5.40;;;;;;;21.51;100.00;101200.34;4999251;28;20406;-76
2023/06/26 01:30:32;;;;;;;17.43;4.83;;;;;;;21.53;100.00;101203.69;4997570;28;20058;-78
2023/06/26 01:32:58;;;;;;;18.83;5.90;;;;;;;21.57;100.00;101204.03;5009573;28;20061;-76
2023/06/26 01:35:24;;;;;;;20.45;4.97;;;;;;;21.58;100.00;101190.06;5001447;28;20464;-77
2023/06/26 01:37:50;;;;;;;14.48;4.65;;;;;;;21.50;100.00;101204.16;5002098;28;20445;-78
2023/06/26 01:40:15;;;;;;;16.67;5.05;;;;;;;21.47;100.00;101201.94;5009747;28;20040;-78
2023/06/26 01:42:41;;;;;;;15.18;5.00;;;;;;;21.45;100.00;101201.34;5016054;28;20033;-79
2023/06/26 01:45:13;;;;;;;21.17;5.65;;;;;;;21.34;100.00;101202.19;5014995;28;20026;-77
2023/06/26 01:47:41;;;;;;;15.88;4.70;;;;;;;21.29;100.00;101208.41;4997718;28;20088;-77
2023/06/26 01:50:10;;;;;;;17.73;4.97;;;;;;;21.24;100.00;101200.91;4996802;28;20028;-77
2023/06/26 01:52:40;;;;;;;21.15;5.43;;;;;;;21.18;100.00;101212.03;5006056;28;20030;-77
2023/06/26 01:55:07;;;;;;;22.05;5.85;;;;;;;21.08;100.00;101215.38;4997392;28;20389;-78
2023/06/26 01:57:34;;;;;;;26.73;5.18;;;;;;;21.09;100.00;101203.38;4996570;28;20038;-78
2023/06/26 02:00:01;;;;;;;27.00;5.50;;;;;;;21.03;100.00;101207.06;5015392;28;20404;-77
2023/06/26 02:02:28;;;;;;;17.90;5.47;;;;;;;21.04;100.00;101215.03;5013836;28;20540;-77
2023/06/26 02:04:54;;;;;;;20.85;5.40;;;;;;;21.07;100.00;101232.88;5013736;28;20049;-78
2023/06/26 02:07:19;;;;;;;26.90;5.97;;;;;;;21.05;100.00;101219.44;5016757;28;20022;-78
2023/06/26 02:09:44;;;;;;;25.88;5.18;;;;;;;20.99;100.00;101216.84;4993019;28;20090;-78
2023/06/26 02:12:10;;;;;;;18.52;5.20;;;;;;;20.94;100.00;101214.81;5006632;28;20060;-77
2023/06/26 02:14:35;;;;;;;19.70;5.80;;;;;;;20.90;100.00;101213.63;5013841;28;20319;-77
2023/06/26 02:17:02;;;;;;;33.85;5.80;;;;;;;20.85;100.00;101213.53;4999642;28;20031;-77
2023/06/26 02:19:27;;;;;;;18.92;5.32;;;;;;;20.84;100.00;101214.63;5012293;28;20087;-78
2023/06/26 02:21:53;;;;;;;27.65;6.32;;;;;;;20.88;100.00;101223.16;5012794;28;20030;-77
2023/06/26 02:24:19;;;;;;;23.75;5.45;;;;;;;20.82;100.00;101220.31;5014289;28;20022;-77
2023/06/26 02:26:45;;;;;;;19.00;5.80;;;;;;;20.80;100.00;101233.41;5013383;28;20133;-77
2023/06/26 02:29:11;;;;;;;24.13;6.05;;;;;;;20.78;100.00;101235.56;5015442;28;20029;-76
2023/06/26 02:31:36;;;;;;;21.83;5.70;;;;;;;20.70;100.00;101237.84;5015694;28;20037;-78
2023/06/26 02:34:02;;;;;;;24.92;5.25;;;;;;;20.68;100.00;101240.81;5015155;28;20479;-77
2023/06/26 02:36:27;;;;;;;22.25;5.07;;;;;;;20.63;100.00;101232.47;5016184;28;20195;-77
2023/06/26 02:38:53;;;;;;;21.67;5.47;;;;;;;20.60;100.00;101233.78;5016692;28;20026;-78
2023/06/26 02:41:18;;;;;;;20.75;5.65;;;;;;;20.57;100.00;101244.38;5007910;28;20053;-76
2023/06/26 02:43:43;;;;;;;23.67;5.88;;;;;;;20.53;100.00;101243.97;5013273;28;20030;-76
2023/06/26 02:46:09;;;;;;;23.58;5.97;;;;;;;20.48;100.00;101245.78;4995460;28;20445;-75
2023/06/26 02:48:34;;;;;;;21.60;5.53;;;;;;;20.48;100.00;101246.59;5013027;28;20041;-75
2023/06/26 02:51:00;;;;;;;25.08;5.13;;;;;;;20.43;100.00;101260.16;5014103;28;20465;-76
2023/06/26 02:53:25;;;;;;;23.67;5.00;;;;;;;20.32;100.00;101264.53;5013773;28;20650;-76
2023/06/26 02:55:50;;;;;;;26.08;5.15;;;;;;;20.30;100.00;101258.50;5013324;28;20041;-76
2023/06/26 02:58:16;;;;;;;21.75;5.75;;;;;;;20.26;100.00;101275.59;5013051;28;20030;-77
2023/06/26 03:00:41;;;;;;;16.98;4.63;;;;;;;20.31;100.00;101279.28;5013130;28;20457;-76
2023/06/26 03:03:07;;;;;;;22.55;5.85;;;;;;;20.32;100.00;101283.69;4995023;28;20026;-77
2023/06/26 03:05:33;;;;;;;17.50;4.90;;;;;;;20.33;100.00;101288.09;5011981;28;20030;-76
2023/06/26 03:07:58;;;;;;;12.68;4.25;;;;;;;20.22;100.00;101271.66;5014085;28;20488;-77
2023/06/26 03:10:23;;;;;;;23.15;5.00;;;;;;;20.26;100.00;101275.59;5015136;28;20037;-77
2023/06/26 03:12:49;;;;;;;22.45;4.90;;;;;;;20.24;100.00;101273.09;5011955;28;20076;-76
2023/06/26 03:15:14;;;;;;;18.73;5.38;;;;;;;20.20;100.00;101271.91;5013011;28;20041;-77
2023/06/26 03:17:40;;;;;;;16.95;4.65;;;;;;;20.20;100.00;101288.31;5013933;28;20036;-77
2023/06/26 03:20:06;;;;;;;18.95;5.35;;;;;;;20.16;100.00;101287.09;5013351;28;20026;-77
2023/06/26 03:22:33;;;;;;;27.98;5.45;;;;;;;20.15;100.00;101290.91;5012640;28;20026;-77
2023/06/26 03:24:59;;;;;;;20.98;5.18;;;;;;;20.09;100.00;101289.97;5010649;28;20026;-77
2023/06/26 03:27:24;;;;;;;18.83;5.10;;;;;;;20.05;100.00;101296.94;5011809;28;20041;-77
2023/06/26 03:29:50;;;;;;;17.92;5.25;;;;;;;20.06;100.00;101297.78;5010744;28;20042;-77
2023/06/26 03:32:15;;;;;;;14.90;5.10;;;;;;;20.06;100.00;101290.41;4998350;28;20022;-77
2023/06/26 03:34:40;;;;;;;16.98;5.00;;;;;;;20.04;100.00;101294.47;5012561;28;20065;-76
2023/06/26 03:37:06;;;;;;;16.85;5.18;;;;;;;19.96;100.00;101290.16;5011775;28;20058;-76
2023/06/26 03:39:31;;;;;;;16.83;4.68;;;;;;;19.93;100.00;101290.59;5011756;28;20030;-76
2023/06/26 03:42:00;;;;;;;27.15;5.72;;;;;;;19.91;100.00;101295.50;4998913;28;20038;-76
2023/06/26 03:44:26;;;;;;;23.23;5.75;;;;;;;19.87;100.00;101297.84;5001529;28;20030;-76
2023/06/26 03:46:51;;;;;;;20.95;4.93;;;;;;;19.83;100.00;101299.38;5012685;28;20076;-77
2023/06/26 03:49:17;;;;;;;24.48;4.93;;;;;;;19.86;100.00;101304.38;5014999;28;20033;-76
2023/06/26 03:51:42;;;;;;;19.88;4.95;;;;;;;19.88;100.00;101304.13;5015220;28;20030;-76
2023/06/26 03:54:08;;;;;;;14.63;4.63;;;;;;;19.85;100.00;101307.31;5017458;28;20105;-77
2023/06/26 03:56:33;;;;;;;10.32;4.28;;;;;;;19.79;100.00;101314.56;5018164;28;20129;-77
2023/06/26 03:58:58;;;;;;;13.82;4.55;;;;;;;19.82;100.00;101319.56;5015063;28;20448;-77
2023/06/26 04:01:24;;;;;;;15.27;4.82;;;;;;;19.77;100.00;101326.78;5015200;28;20058;-78
2023/06/26 04:03:49;;;;;;;16.90;4.53;;;;;;;19.83;100.00;101331.34;5015287;28;20022;-76
2023/06/26 04:06:15;;;;;;;15.63;4.28;;;;;;;19.86;100.00;101341.78;5014644;28;20022;-77
2023/06/26 04:08:40;;;;;;;14.77;4.43;;;;;;;19.92;100.00;101338.94;5014802;28;20378;-77
2023/06/26 04:11:06;;;;;;;16.50;4.18;;;;;;;19.94;100.00;101349.66;4980712;28;20108;-77
2023/06/26 04:13:31;;;;;;;14.75;4.25;;;;;;;20.02;100.00;101352.06;4975667;28;20504;-77
2023/06/26 04:15:57;;;;;;;12.35;4.25;;;;;;;20.08;100.00;101356.59;5010812;28;20029;-76
2023/06/26 04:18:22;;;;;;;10.32;3.70;;;;;;;20.15;100.00;101351.88;5012976;28;20527;-77
2023/06/26 04:21:12;;;;;;;20.10;5.85;;;;;;;20.25;100.00;101356.78;5010634;28;20041;-77
2023/06/26 04:23:40;;;;;;;13.15;3.70;;;;;;;20.27;100.00;101359.25;5009551;28;20029;-77
2023/06/26 04:26:06;;;;;;;10.15;3.75;;;;;;;20.12;100.00;101366.00;5010056;28;20112;-77
2023/06/26 04:28:35;;;;;;;17.15;3.92;;;;;;;19.99;100.00;101368.09;5011725;28;20069;-77
2023/06/26 04:31:03;;;;;;;13.65;3.85;;;;;;;19.95;100.00;101368.53;5011513;28;20026;-77
2023/06/26 04:33:29;;;;;;;;;;;;;;;19.99;100.00;101368.91;5009819;28;20531;-77
2023/06/26 04:35:54;;;;;;;13.52;3.60;;;;;;;20.05;100.00;101370.72;5009941;28;19921;-77
2023/06/26 04:38:21;;;;;;;7.13;3.33;;;;;;;19.90;100.00;101382.06;5014329;28;20461;-76
2023/06/26 04:40:47;;;;;;;8.50;3.67;;;;;;;19.82;100.00;101376.91;5015212;28;20196;-78
2023/06/26 04:43:12;;;;;;;13.05;4.38;;;;;;;19.73;100.00;101381.88;5014784;28;20022;-78
2023/06/26 04:45:38;;;;;;;9.55;3.90;;;;;;;19.78;100.00;101389.38;5002734;28;20401;-77
2023/06/26 04:48:03;;;;;;;12.90;4.30;;;;;;;19.91;100.00;101399.31;4995294;28;20037;-77
2023/06/26 04:50:30;;;;;;;11.05;3.90;;;;;;;20.07;100.00;101408.75;4996604;28;20031;-77
2023/06/26 04:52:55;;;;;;;9.75;3.60;;;;;;;20.13;100.00;101399.63;5013836;28;20410;-77
2023/06/26 04:55:23;;;;;;;9.13;3.35;;;;;;;20.21;100.00;101396.56;5013683;28;20076;-77
2023/06/26 04:57:49;;;;;;;12.77;3.78;;;;;;;20.34;100.00;101396.34;5014344;28;20030;-77
2023/06/26 05:00:15;;;;;;;10.07;3.88;;;;;;;20.47;100.00;101402.69;5013628;28;20578;-77
2023/06/26 05:02:40;;;;;;;9.70;3.30;;;;;;;20.49;100.00;101416.97;5013578;28;20034;-79
2023/06/26 05:05:06;;;;;;;13.38;3.92;;;;;;;20.43;100.00;101413.25;5014478;28;20561;-76
2023/06/26 05:07:31;;;;;;;10.77;3.28;;;;;;;20.50;100.00;101413.16;5017202;28;20520;-76
2023/06/26 05:09:57;;;;;;;9.52;3.13;;;;;;;20.64;100.00;101414.63;5014666;28;20057;-78
2023/06/26 05:12:22;;;;;;;7.00;3.42;;;;;;;20.65;100.00;101416.31;5009960;28;20362;-77
2023/06/26 05:14:47;;;;;;;6.47;3.13;;;;;;;20.64;100.00;101416.53;5011746;28;20491;-77
2023/06/26 05:17:16;;;;;;;9.00;2.97;;;;;;;20.53;100.00;101410.78;4997629;28;20042;-79
2023/06/26 05:19:41;;;;;;;8.30;2.63;;;;;;;20.51;100.00;101420.28;5013999;28;20049;-78
2023/06/26 05:22:07;;;;;;;6.80;2.90;;;;;;;20.46;100.00;101428.34;5018710;28;20022;-78
2023/06/26 05:24:35;;;;;;;5.72;2.30;;;;;;;20.34;100.00;101426.44;5001678;28;20436;-77
2023/06/26 05:27:01;;;;;;;10.10;2.15;;;;;;;20.31;100.00;101437.84;5020623;28;20037;-77
2023/06/26 05:29:27;;;;;;;4.90;1.90;;;;;;;20.17;100.00;101442.66;5017982;28;20042;-77
2023/06/26 05:31:53;;;;;;;5.22;2.17;;;;;;;20.15;100.00;101442.06;5015820;28;20476;-77
2023/06/26 05:34:22;;;;;;;7.80;2.20;;;;;;;20.06;100.00;101445.31;5014652;28;20061;-77
2023/06/26 05:36:49;;;;;;;16.80;2.10;;;;;;;19.84;100.00;101451.28;4996438;28;20037;-76
2023/06/26 05:39:15;;;;;;;7.32;1.90;;;;;;;19.61;100.00;101456.56;5013543;28;20026;-77
2023/06/26 05:41:41;;;;;;;9.43;1.92;;;;;;;19.71;100.00;101460.44;5012683;28;20028;-77
2023/06/26 05:44:06;;;;;;;8.85;2.00;;;;;;;19.83;100.00;101452.34;5014564;28;20041;-77
2023/06/26 05:46:31;;;;;;;10.32;1.95;;;;;;;20.12;100.00;101458.09;5015470;28;20061;-77
2023/06/26 05:48:57;;;;;;;8.68;1.83;;;;;;;20.39;100.00;101467.56;4998724;28;20041;-77
2023/06/26 05:51:22;;;;;;;12.98;2.53;;;;;;;20.52;100.00;101465.72;4998166;28;20022;-77
2023/06/26 05:53:49;;;;;;;7.32;1.83;;;;;;;20.58;100.00;101464.81;5016372;28;20034;-77
2023/06/26 05:56:14;;;;;;;12.65;2.03;;;;;;;20.53;100.00;101461.91;5015531;28;20053;-78
2023/06/26 05:58:40;;;;;;;12.30;1.85;;;;;;;20.50;100.00;101470.59;5016483;28;20022;-77
2023/06/26 06:01:06;;;;;;;4.97;1.73;;;;;;;20.44;100.00;101457.84;4997577;28;20105;-80
2023/06/26 06:03:31;;;;;;;9.45;1.83;;;;;;;20.44;100.00;101469.63;5012189;28;20037;-76
2023/06/26 06:05:57;;;;;;;8.07;1.52;;;;;;;20.32;100.00;101466.81;5011895;28;20136;-78
2023/06/26 06:08:22;;;;;;;9.75;1.98;;;;;;;20.25;100.00;101471.56;5012058;28;20385;-79
2023/06/26 06:10:47;;;;;;;6.30;1.60;;;;;;;20.15;100.00;101477.56;5011386;28;20121;-78
2023/06/26 06:13:13;;;;;;;5.47;1.50;;;;;;;20.17;100.00;101482.81;5015282;28;20026;-77
2023/06/26 06:15:38;;;;;;;9.88;2.00;;;;;;;20.26;100.00;101486.88;5011210;28;20118;-77
2023/06/26 06:18:03;;;;;;;8.57;1.90;;;;;;;20.55;100.00;101485.25;5010864;28;20484;-77
2023/06/26 06:20:29;;;;;;;10.10;1.63;;;;;;;20.53;100.00;101489.25;5012514;28;20080;-80
2023/06/26 06:22:54;;;;;;;7.55;1.75;;;;;;;20.53;100.00;101489.25;5012558;28;20662;-76
2023/06/26 06:25:19;;;;;;;15.05;6.15;;;;;;;20.78;100.00;101497.34;5012188;28;20041;-77
2023/06/26 06:27:45;;;;;;;6.78;1.50;;;;;;;21.05;100.00;101495.84;4994796;28;20069;-77
2023/06/26 06:30:11;;;;;;;12.48;2.10;;;;;;;21.26;100.00;101502.66;5012316;28;20112;-77
2023/06/26 06:32:36;;;;;;;14.32;1.98;;;;;;;21.53;100.00;101496.72;5012920;28;20108;-78
2023/06/26 06:35:08;;;;;;;8.65;1.70;;;;;;;21.73;100.00;101504.56;5011517;28;20061;-77
2023/06/26 06:37:34;;;;;;;9.82;1.70;;;;;;;21.77;100.00;101518.63;5012559;28;20030;-77
2023/06/26 06:39:59;;;;;;;11.02;1.63;;;;;;;21.77;100.00;101526.84;5013881;28;20032;-77
2023/06/26 06:42:24;;;;;;;6.28;1.52;;;;;;;21.60;100.00;101516.63;5014982;28;20033;-78
2023/06/26 06:44:50;;;;;;;6.07;1.50;;;;;;;21.68;100.00;101524.47;5015890;28;20049;-79
2023/06/26 06:47:15;;;;;;;7.22;1.52;;;;;;;21.83;100.00;101536.84;5012769;28;20072;-77
2023/06/26 06:49:40;;;;;;;7.10;2.00;;;;;;;21.94;100.00;101541.47;5000862;28;20038;-76
2023/06/26 06:52:06;;;;;;;10.57;2.10;;;;;;;22.09;100.00;101557.41;4999552;28;20156;-78
2023/06/26 06:54:31;;;;;;;4.60;1.35;;;;;;;22.09;100.00;101558.25;5016541;28;20449;-77
2023/06/26 06:56:57;;;;;;;11.15;1.75;;;;;;;22.21;100.00;101561.00;5014932;28;20046;-77
2023/06/26 06:59:22;;;;;;;14.32;2.17;;;;;;;22.16;100.00;101546.31;4997307;28;20113;-78
2023/06/26 07:01:47;;;;;;;7.68;1.90;;;;;;;22.10;100.00;101553.59;5014155;28;20034;-77
2023/06/26 07:04:13;;;;;;;5.65;1.77;;;;;;;22.04;100.00;101549.94;4997880;28;20115;-77
2023/06/26 07:06:38;;;;;;;7.47;1.73;;;;;;;22.63;100.00;101554.44;5015532;28;20104;-77
2023/06/26 07:09:03;;;;;;;8.82;1.70;;;;;;;23.25;100.00;101559.97;5013687;28;20033;-77
2023/06/26 07:11:29;;;;;;;7.57;2.00;;;;;;;23.99;100.00;101554.25;4995951;28;20052;-78
2023/06/26 07:13:55;;;;;;;7.05;1.88;;;;;;;24.86;95.71;101565.47;5014071;28;20496;-77
2023/06/26 07:16:20;;;;;;;6.57;1.63;;;;;;;25.22;91.39;101571.31;5012185;28;20030;-77
2023/06/26 07:18:46;;;;;;;6.88;1.75;;;;;;;25.87;89.68;101572.09;5011192;28;20073;-77
2023/06/26 07:21:11;;;;;;;6.95;1.88;;;;;;;26.29;88.30;101574.78;5011199;28;20030;-77
2023/06/26 07:23:36;;;;;;;17.02;2.63;;;;;;;26.66;84.97;101584.88;4998316;28;20345;-77
2023/06/26 07:26:02;;;;;;;11.23;2.20;;;;;;;26.65;82.88;101586.81;5015980;28;20084;-77
2023/06/26 07:28:27;;;;;;;11.88;1.75;;;;;;;27.04;81.43;101582.72;5015419;28;20437;-77
2023/06/26 07:30:53;;;;;;;7.03;2.00;;;;;;;27.44;79.22;101592.19;5015712;28;20030;-77
2023/06/26 07:33:18;;;;;;;7.90;1.80;;;;;;;27.00;78.57;101590.75;5015237;28;20037;-77
2023/06/26 07:35:43;;;;;;;5.80;1.80;;;;;;;26.89;80.31;101591.84;4998043;28;20034;-78
2023/06/26 07:38:09;;;;;;;9.05;1.80;;;;;;;27.30;79.53;101608.47;5016302;28;20029;-77
2023/06/26 07:40:34;;;;;;;7.13;1.65;;;;;;;27.35;77.66;101603.78;5015496;28;20449;-77
2023/06/26 07:42:59;;;;;;;8.55;1.63;;;;;;;27.57;77.95;101594.41;5015745;28;20018;-78
2023/06/26 07:45:25;;;;;;;6.50;1.75;;;;;;;28.49;75.66;101609.94;4997182;28;20033;-77
2023/06/26 07:47:50;;;;;;;5.43;1.65;;;;;;;28.41;74.64;101608.56;5016862;28;20114;-78
2023/06/26 07:50:22;;;;;;;8.27;1.85;;;;;;;28.59;73.79;101616.25;5014712;28;20037;-78
2023/06/26 07:52:47;;;;;;;9.35;2.15;;;;;;;28.92;71.69;101618.59;4998916;28;20045;-78
2023/06/26 07:55:13;;;;;;;11.02;1.88;;;;;;;28.53;72.00;101624.91;4998136;28;20029;-78
2023/06/26 07:57:38;;;;;;;9.98;1.67;;;;;;;28.16;74.83;101634.41;5017730;28;20083;-78
2023/06/26 08:00:06;;;;;;;4.65;1.55;;;;;;;28.47;73.61;101629.63;5016866;28;20030;-77
2023/06/26 08:02:32;;;;;;;7.00;1.67;;;;;;;28.44;72.77;101632.97;5015595;28;20164;-77
2023/06/26 08:04:57;;;;;;;9.68;2.45;;;;;;;28.57;72.86;101637.91;4998629;28;20144;-77
2023/06/26 08:07:22;;;;;;;9.43;2.05;;;;;;;28.38;72.53;101628.53;4997980;28;20030;-77
2023/06/26 08:09:48;;;;;;;5.50;1.67;;;;;;;28.58;72.18;101634.00;5014757;28;20504;-77
2023/06/26 08:12:13;;;;;;;7.28;1.70;;;;;;;28.57;70.25;101635.13;5014541;28;20036;-76
2023/06/26 08:14:38;;;;;;;7.88;1.98;;;;;;;29.09;70.84;101636.50;5015613;28;20026;-78
2023/06/26 08:17:04;;;;;;;9.30;1.90;;;;;;;29.67;68.18;101626.66;5014319;28;20025;-77
2023/06/26 08:19:29;;;;;;;10.18;2.10;;;;;;;29.43;68.29;101644.00;5014337;28;20041;-77
2023/06/26 08:21:55;;;;;;;11.82;1.92;;;;;;;29.31;68.18;101641.63;5019009;28;20053;-78
2023/06/26 08:24:20;;;;;;;9.07;2.58;;;;;;;29.67;68.34;101640.50;4999006;28;20079;-77
2023/06/26 08:26:46;;;;;;;7.82;1.80;;;;;;;30.24;66.13;101647.19;5014781;28;20022;-77
2023/06/26 08:29:11;;;;;;;14.15;2.35;;;;;;;30.28;66.03;101642.69;5015731;28;20033;-77
2023/06/26 08:31:38;;;;;;;11.73;2.30;;;;;;;29.89;65.48;101651.16;5019664;28;20037;-77
2023/06/26 08:34:04;;;;;;;13.98;2.03;;;;;;;30.08;64.72;101646.50;4998635;28;20385;-78
2023/06/26 08:36:30;;;;;;;5.23;2.17;;;;;;;29.80;64.25;101653.72;5015945;28;20049;-78
2023/06/26 08:38:55;;;;;;;7.40;1.67;;;;;;;29.78;64.86;101653.19;5015551;28;20436;-78
2023/06/26 08:41:20;;;;;;;8.97;1.80;;;;;;;29.69;64.58;101652.16;5015669;28;20034;-78
2023/06/26 08:43:46;;;;;;;4.50;1.80;;;;;;;28.78;68.17;101669.09;5015582;28;20030;-78
2023/06/26 08:46:12;;;;;;;9.30;2.03;;;;;;;29.45;68.07;101663.16;5014601;28;20036;-77
2023/06/26 08:48:37;;;;;;;16.92;1.80;;;;;;;29.13;67.60;101674.75;5014782;28;20068;-78
2023/06/26 08:51:12;;;;;;;6.60;1.63;;;;;;;29.55;67.21;101671.41;5014499;28;20030;-77
2023/06/26 08:53:59;;;;;;;14.27;3.75;;;;;;;29.85;65.14;101661.97;4997556;28;20049;-78
2023/06/26 08:56:29;;;;;;;12.02;2.20;;;;;;;29.66;65.68;101670.22;5016243;28;20045;-77
2023/06/26 08:58:55;;;;;;;10.88;2.15;;;;;;;29.52;66.51;101672.81;4999164;28;20113;-77
2023/06/26 09:01:20;;;;;;;9.67;2.20;;;;;;;29.31;67.56;101683.22;5016585;28;20457;-77
2023/06/26 09:03:46;;;;;;;7.90;2.07;;;;;;;29.75;65.80;101682.34;5017451;28;20102;-77
2023/06/26 09:06:11;;;;;;;10.00;2.30;;;;;;;29.46;66.71;101684.22;5018514;28;20025;-77
2023/06/26 09:08:37;;;;;;;9.00;2.00;;;;;;;28.99;66.68;101680.91;5015366;28;20101;-79
2023/06/26 09:11:02;;;;;;;15.35;1.92;;;;;;;28.91;68.08;101684.25;5015465;28;20018;-78
2023/06/26 09:13:31;;;;;;;7.25;2.08;;;;;;;28.76;67.72;101687.94;5015449;28;20034;-77
2023/06/26 09:15:56;;;;;;;7.57;2.15;;;;;;;28.89;68.19;101701.19;5015220;28;20034;-80
2023/06/26 09:18:22;;;;;;;11.07;2.20;;;;;;;29.07;68.06;101702.50;5017696;28;20033;-79
2023/06/26 09:20:48;;;;;;;11.73;2.17;;;;;;;29.27;66.87;101698.75;5017679;28;20105;-77
2023/06/26 09:23:14;;;;;;;11.57;2.17;;;;;;;29.33;64.43;101694.00;5016807;28;20034;-78
2023/06/26 09:25:40;;;;;;;7.67;1.90;;;;;;;29.30;65.11;101705.66;5014777;28;20243;-77
2023/06/26 09:28:05;;;;;;;7.10;1.90;;;;;;;29.13;64.14;101708.03;5013839;28;20037;-77
2023/06/26 09:30:34;;;;;;;7.63;1.88;;;;;;;28.97;65.59;101718.31;5015875;28;20498;-76
2023/06/26 09:33:16;;;;;;;10.70;2.55;;;;;;;29.08;66.53;101726.31;5014875;28;20037;-77
2023/06/26 09:35:43;;;;;;;7.15;2.20;;;;;;;29.28;65.44;101730.09;5016145;28;20392;-79
2023/06/26 09:38:08;;;;;;;;;;;;;;;29.52;64.03;101733.81;5015226;28;20045;-77
2023/06/26 09:40:35;;;;;;;7.80;1.93;;;;;;;29.51;63.45;101732.16;5015936;28;19914;-77
2023/06/26 09:43:10;;;;;;;7.80;2.22;;;;;;;29.74;63.64;101741.72;5014208;28;20026;-76
2023/06/26 09:45:36;;;;;;;9.18;2.10;;;;;;;29.77;63.33;101740.31;4995807;28;20052;-78
2023/06/26 09:48:03;;;;;;;8.50;2.10;;;;;;;30.05;61.83;101743.41;5012412;28;20033;-77
2023/06/26 09:50:28;;;;;;;5.60;1.67;;;;;;;29.87;59.85;101743.00;5012401;28;20108;-76
2023/06/26 09:52:55;;;;;;;7.07;1.80;;;;;;;30.01;61.44;101745.09;5013526;28;20285;-77
2023/06/26 09:55:23;;;;;;;10.15;1.80;;;;;;;28.78;62.24;101746.66;5014752;28;20054;-78
2023/06/26 09:57:50;;;;;;;8.65;2.20;;;;;;;28.59;63.11;101742.84;5013395;28;20507;-77
2023/06/26 10:00:16;;;;;;;6.78;1.50;;;;;;;28.59;63.62;101742.84;5013124;28;20022;-79
2023/06/26 10:02:41;;;;;;;4.90;1.33;;;;;;;28.24;65.36;101753.69;4995418;28;20033;-76
2023/06/26 10:05:07;;;;;;;11.48;1.85;;;;;;;28.44;64.82;101743.72;5011300;28;20299;-77
2023/06/26 10:07:32;;;;;;;5.93;1.67;;;;;;;28.66;65.21;101754.47;5013953;28;20379;-77
2023/06/26 10:09:58;;;;;;;12.80;2.13;;;;;;;29.09;62.42;101747.38;4995685;28;20021;-78
2023/06/26 10:12:29;;;;;;;9.32;1.58;;;;;;;28.98;63.35;101753.22;4995370;28;20090;-77
2023/06/26 10:14:57;;;;;;;9.73;1.92;;;;;;;28.97;62.50;101754.34;4995760;28;20401;-77
2023/06/26 10:17:25;;;;;;;12.75;1.85;;;;;;;29.02;61.53;101757.94;5013578;28;20030;-77
2023/06/26 10:19:53;;;;;;;9.35;1.92;;;;;;;29.02;61.52;101757.94;4982035;28;20033;-76
2023/06/26 10:22:20;;;;;;;6.30;1.60;;;;;;;29.03;60.45;101764.28;4994773;28;20029;-76
2023/06/26 10:24:47;;;;;;;9.43;1.95;;;;;;;29.31;61.66;101765.56;5012476;28;20030;-78
2023/06/26 10:27:20;;;;;;;12.38;1.95;;;;;;;29.21;60.20;101776.72;5012972;28;20022;-78
2023/06/26 10:29:51;;;;;;;10.50;2.45;;;;;;;28.50;62.10;101775.81;4996552;28;20116;-78
2023/06/26 10:32:17;;;;;;;6.40;1.70;;;;;;;28.17;63.54;101767.00;4995731;28;20093;-76
2023/06/26 10:34:43;;;;;;;9.60;2.03;;;;;;;28.04;65.84;101775.84;4996451;28;20042;-77
2023/06/26 10:37:08;;;;;;;8.88;1.63;;;;;;;28.00;65.62;101788.56;5015442;28;20056;-76
2023/06/26 10:39:49;;;;;;;8.57;1.90;;;;;;;27.69;66.72;101790.44;5013706;28;20037;-77
2023/06/26 10:42:16;;;;;;;6.45;2.10;;;;;;;27.75;66.60;101795.72;4995865;28;20069;-79
2023/06/26 10:44:43;;;;;;;8.40;1.65;;;;;;;28.31;66.45;101796.88;4998782;28;20033;-78
2023/06/26 10:47:08;;;;;;;;;;;;;;;28.24;63.99;101800.75;4997440;28;20064;-78
2023/06/26 10:49:36;;;;;;;4.13;1.57;;;;;;;28.43;64.46;101802.94;5016548;28;20360;-78
2023/06/26 10:52:01;;;;;;;6.53;1.80;;;;;;;28.64;63.58;101799.03;5011677;28;20043;-77
2023/06/26 10:54:31;;;;;;;8.15;1.98;;;;;;;28.35;64.15;101800.72;4994654;28;20038;-77
2023/06/26 10:56:56;;;;;;;8.52;1.75;;;;;;;28.53;63.83;101808.50;5014978;28;20046;-76
2023/06/26 10:59:25;;;;;;;7.40;1.67;;;;;;;28.74;63.67;101811.22;4997810;28;20386;-77
2023/06/26 11:02:01;;;;;;;6.90;1.95;;;;;;;28.27;64.21;101809.59;5015702;28;20037;-77
2023/06/26 11:04:40;;;;;;;8.68;1.90;;;;;;;27.78;65.18;101817.31;5016016;28;20056;-77
2023/06/26 11:07:23;;;;;;;9.27;1.67;;;;;;;27.32;67.19;101821.88;5015912;28;20036;-76
2023/06/26 11:09:56;;;;;;;6.80;1.65;;;;;;;26.89;68.43;101810.88;5016555;28;20022;-77
2023/06/26 11:12:43;;;;;;;8.10;1.98;;;;;;;26.92;69.14;101821.41;5016312;28;20018;-78
2023/06/26 11:15:15;;;;;;;5.93;1.88;;;;;;;26.74;69.99;101830.13;5016742;28;20026;-76